createdAt,value
2022-09-06T00:01:25.828Z,5.40
2022-09-06T00:04:15.411Z,5.30
2022-09-06T00:07:01.527Z,5.80
2022-09-06T00:09:47.268Z,5.90
2022-09-06T00:12:33.560Z,5.27
2022-09-06T00:15:19.751Z,5.80
2022-09-06T00:18:07.263Z,4.90
2022-09-06T00:20:53.380Z,5.57
2022-09-06T00:23:39.911Z,5.23
2022-09-06T00:26:26.043Z,5.00
2022-09-06T00:29:12.834Z,6.20
2022-09-06T00:31:59.388Z,5.30
2022-09-06T00:34:45.471Z,4.93
2022-09-06T00:37:31.116Z,5.43
2022-09-06T00:40:17.046Z,4.97
2022-09-06T00:43:05.074Z,5.33
2022-09-06T00:45:51.987Z,5.53
2022-09-06T00:48:39.212Z,5.30
2022-09-06T00:51:26.137Z,6.10
2022-09-06T00:54:12.642Z,5.30
2022-09-06T00:56:58.729Z,5.70
2022-09-06T00:59:46.073Z,4.93
2022-09-06T01:02:31.672Z,4.60
2022-09-06T01:05:18.241Z,4.47
2022-09-06T01:08:24.763Z,5.20
2022-09-06T01:11:28.989Z,4.53
2022-09-06T01:14:24.313Z,5.00
2022-09-06T01:17:11.651Z,5.47
2022-09-06T01:19:57.726Z,5.03
2022-09-06T01:22:53.273Z,5.10
2022-09-06T01:25:46.714Z,5.13
2022-09-06T01:28:35.202Z,4.87
2022-09-06T01:31:23.238Z,4.67
2022-09-06T01:34:09.404Z,5.20
2022-09-06T01:37:09.319Z,5.33
2022-09-06T01:39:55.805Z,5.00
2022-09-06T01:42:42.479Z,4.60
2022-09-06T01:45:58.080Z,5.00
2022-09-06T01:48:48.053Z,4.70
2022-09-06T01:51:40.831Z,4.63
2022-09-06T01:54:27.067Z,5.07
2022-09-06T01:57:41.962Z,5.07
2022-09-06T02:00:28.312Z,5.90
2022-09-06T02:03:25.732Z,5.57
2022-09-06T02:06:17.787Z,5.60
2022-09-06T02:09:06.517Z,5.60
2022-09-06T02:11:55.784Z,5.37
2022-09-06T02:14:46.848Z,4.37
2022-09-06T02:17:39.072Z,5.70
2022-09-06T02:20:26.717Z,4.40
2022-09-06T02:23:16.637Z,4.30
2022-09-06T02:26:08.841Z,5.27
2022-09-06T02:28:55.317Z,4.50
2022-09-06T02:31:53.626Z,5.17
2022-09-06T02:34:40.034Z,4.13
2022-09-06T02:37:27.008Z,4.50
2022-09-06T02:40:13.102Z,4.50
2022-09-06T02:42:59.367Z,4.83
2022-09-06T02:45:45.231Z,4.00
2022-09-06T02:48:31.538Z,4.30
2022-09-06T02:51:17.764Z,4.13
2022-09-06T02:54:06.040Z,3.80
2022-09-06T02:56:52.602Z,4.10
2022-09-06T02:59:39.934Z,4.43
2022-09-06T03:02:26.312Z,3.90
2022-09-06T03:05:12.956Z,3.40
2022-09-06T03:08:01.189Z,3.70
2022-09-06T03:10:51.343Z,3.47
2022-09-06T03:13:38.770Z,4.00
2022-09-06T03:16:25.006Z,3.47
2022-09-06T03:19:10.990Z,3.03
2022-09-06T03:21:57.107Z,3.40
2022-09-06T03:24:43.296Z,3.87
2022-09-06T03:27:29.668Z,3.60
2022-09-06T03:30:16.239Z,3.67
2022-09-06T03:33:02.969Z,4.33
2022-09-06T03:35:56.893Z,3.00
2022-09-06T03:38:42.673Z,3.13
2022-09-06T03:41:28.576Z,3.40
2022-09-06T03:44:14.469Z,3.20
2022-09-06T03:47:00.458Z,3.50
2022-09-06T03:49:46.735Z,3.80
2022-09-06T03:52:32.545Z,3.67
2022-09-06T03:55:18.583Z,3.90
2022-09-06T03:58:04.343Z,3.70
2022-09-06T04:00:57.792Z,4.57
2022-09-06T04:03:43.696Z,3.70
2022-09-06T04:06:29.539Z,3.60
2022-09-06T04:09:15.993Z,4.57
2022-09-06T04:12:01.583Z,4.30
2022-09-06T04:14:47.636Z,4.87
2022-09-06T04:17:34.009Z,4.73
2022-09-06T04:20:20.085Z,5.10
2022-09-06T04:23:06.414Z,5.57
2022-09-06T04:25:54.007Z,5.60
2022-09-06T04:28:41.282Z,5.57
2022-09-06T04:31:27.555Z,5.67
2022-09-06T04:34:13.872Z,5.60
2022-09-06T04:37:00.432Z,5.40
2022-09-06T04:39:49.847Z,5.80
2022-09-06T04:42:35.817Z,6.07
2022-09-06T04:45:21.602Z,7.00
2022-09-06T04:48:07.353Z,5.87
2022-09-06T04:50:53.314Z,5.30
2022-09-06T04:53:38.917Z,7.10
2022-09-06T04:56:26.055Z,5.80
2022-09-06T04:59:12.330Z,7.60
2022-09-06T05:01:58.293Z,7.73
2022-09-06T05:04:44.151Z,6.50
2022-09-06T05:07:31.664Z,6.50
2022-09-06T05:10:17.419Z,5.67
2022-09-06T05:13:03.691Z,5.80
2022-09-06T05:15:49.802Z,5.80
2022-09-06T05:18:35.687Z,5.63
2022-09-06T05:21:22.805Z,6.73
2022-09-06T05:24:09.045Z,6.00
2022-09-06T05:26:55.994Z,6.30
2022-09-06T05:29:44.945Z,7.57
2022-09-06T05:32:30.667Z,6.10
2022-09-06T05:35:18.804Z,5.50
2022-09-06T05:38:05.629Z,5.73
2022-09-06T05:40:51.990Z,5.83
2022-09-06T05:43:37.836Z,6.43
2022-09-06T05:46:23.488Z,6.90
2022-09-06T05:49:10.663Z,6.60
2022-09-06T05:51:56.283Z,6.23
2022-09-06T05:54:42.162Z,5.57
2022-09-06T05:57:27.895Z,5.90
2022-09-06T06:00:15.097Z,6.40
2022-09-06T06:03:00.962Z,8.87
2022-09-06T06:05:49.799Z,7.60
2022-09-06T06:08:36.266Z,6.90
2022-09-06T06:11:22.121Z,6.40
2022-09-06T06:14:08.285Z,6.10
2022-09-06T06:16:54.139Z,6.63
2022-09-06T06:19:40.216Z,6.63
2022-09-06T06:22:25.996Z,6.50
2022-09-06T06:25:12.657Z,7.00
2022-09-06T06:27:58.670Z,6.87
2022-09-06T06:30:46.921Z,8.27
2022-09-06T06:33:33.278Z,6.97
2022-09-06T06:36:20.552Z,5.57
2022-09-06T06:39:08.265Z,5.70
2022-09-06T06:41:54.045Z,5.57
2022-09-06T06:44:59.555Z,5.50
2022-09-06T06:47:49.535Z,5.60
2022-09-06T06:50:35.250Z,6.77
2022-09-06T06:53:20.841Z,5.63
2022-09-06T06:56:25.559Z,5.20
2022-09-06T06:59:11.009Z,5.93
2022-09-06T07:01:56.979Z,5.27
2022-09-06T07:04:43.358Z,5.70
2022-09-06T07:07:31.151Z,5.20
2022-09-06T07:10:33.127Z,5.00
2022-09-06T07:13:19.616Z,4.57
2022-09-06T07:16:08.733Z,5.33
2022-09-06T07:18:55.702Z,5.43
2022-09-06T07:21:41.886Z,4.70
2022-09-06T07:24:27.594Z,5.90
2022-09-06T07:30:20.681Z,5.53
2022-09-06T07:33:09.221Z,4.40
2022-09-06T07:35:59.146Z,4.87
2022-09-06T07:38:48.415Z,5.07
2022-09-06T07:41:34.868Z,4.30
2022-09-06T07:44:22.018Z,5.40
2022-09-06T07:53:30.568Z,4.60
2022-09-06T07:56:17.805Z,4.77
2022-09-06T07:59:03.837Z,4.17
2022-09-06T08:01:50.337Z,5.00
2022-09-06T08:04:38.211Z,4.50
2022-09-06T08:07:40.161Z,4.70
2022-09-06T08:10:27.077Z,4.63
2022-09-06T08:13:14.897Z,4.70
2022-09-06T08:16:01.069Z,4.80
2022-09-06T08:18:50.468Z,4.23
2022-09-06T08:21:36.200Z,4.27
2022-09-06T08:24:21.947Z,4.60
2022-09-06T08:27:08.004Z,4.37
2022-09-06T08:29:53.521Z,4.27
2022-09-06T08:32:41.101Z,4.90
2022-09-06T08:35:28.428Z,4.43
2022-09-06T08:38:14.000Z,5.00
2022-09-06T08:41:10.233Z,4.40
2022-09-06T08:47:08.980Z,4.60
2022-09-06T08:50:01.275Z,4.50
2022-09-06T08:53:16.066Z,4.27
2022-09-06T08:56:04.813Z,4.33
2022-09-06T08:59:20.286Z,4.20
2022-09-06T09:02:12.632Z,4.27
2022-09-06T09:05:01.149Z,4.47
2022-09-06T09:08:07.063Z,4.00
2022-09-06T09:10:55.620Z,4.10
2022-09-06T09:13:41.755Z,4.50
2022-09-06T09:16:27.541Z,3.93
2022-09-06T09:19:14.297Z,4.30
2022-09-06T09:21:59.960Z,4.40
2022-09-06T09:24:47.472Z,3.70
2022-09-06T09:27:34.089Z,3.70
2022-09-06T09:33:28.104Z,4.47
2022-09-06T09:36:14.426Z,4.10
2022-09-06T09:39:00.446Z,4.37
2022-09-06T09:41:49.741Z,3.83
2022-09-06T09:44:36.187Z,4.40
2022-09-06T09:47:24.658Z,3.90
2022-09-06T09:50:39.878Z,4.47
2022-09-06T09:53:26.911Z,4.20
2022-09-06T09:56:15.468Z,4.37
2022-09-06T09:59:01.639Z,3.90
2022-09-06T10:01:47.362Z,3.77
2022-09-06T10:04:43.837Z,4.17
2022-09-06T10:07:31.802Z,4.50
2022-09-06T10:10:22.635Z,4.97
2022-09-06T10:13:31.614Z,4.27
2022-09-06T10:16:17.179Z,4.40
2022-09-06T10:19:21.755Z,4.10
2022-09-06T10:22:26.845Z,4.40
2022-09-06T10:25:31.904Z,4.50
2022-09-06T10:28:26.880Z,4.70
2022-09-06T10:31:31.716Z,4.50
2022-09-06T10:34:35.926Z,4.83
2022-09-06T10:37:29.542Z,5.37
2022-09-06T10:40:31.167Z,4.20
2022-09-06T10:43:19.530Z,4.37
2022-09-06T10:46:12.155Z,4.40
2022-09-06T10:48:58.364Z,4.30
2022-09-06T10:51:49.474Z,4.50
2022-09-06T10:54:37.392Z,3.73
2022-09-06T11:00:48.162Z,4.20
2022-09-06T11:03:58.530Z,4.17
2022-09-06T11:06:45.909Z,4.60
2022-09-06T11:09:47.505Z,4.37
2022-09-06T11:12:53.028Z,4.67
2022-09-06T11:15:43.674Z,3.80
2022-09-06T11:18:32.843Z,3.33
2022-09-06T11:21:19.603Z,3.77
2022-09-06T11:24:11.159Z,4.13
2022-09-06T11:27:05.673Z,3.57
2022-09-06T11:29:56.326Z,4.10
2022-09-06T11:32:54.417Z,3.50
2022-09-06T11:35:42.750Z,3.87
2022-09-06T11:38:28.550Z,3.30
2022-09-06T11:41:16.002Z,3.23
2022-09-06T11:44:02.058Z,3.30
2022-09-06T11:46:48.397Z,2.90
2022-09-06T11:49:35.467Z,3.30
2022-09-06T11:52:39.813Z,4.00
2022-09-06T11:55:34.283Z,3.70
2022-09-06T11:58:23.040Z,3.50
2022-09-06T12:01:20.755Z,3.50
2022-09-06T12:04:07.912Z,3.93
2022-09-06T12:07:13.704Z,3.37
2022-09-06T12:10:02.234Z,3.37
2022-09-06T12:12:52.475Z,3.33
2022-09-06T12:15:45.901Z,3.70
2022-09-06T12:18:43.846Z,3.80
2022-09-06T12:21:38.364Z,3.83
2022-09-06T12:24:38.676Z,3.93
2022-09-06T12:27:26.782Z,3.77
2022-09-06T12:30:14.393Z,3.03
2022-09-06T12:33:00.900Z,3.80
2022-09-06T12:36:05.847Z,4.03
2022-09-06T12:38:57.725Z,3.77
2022-09-06T12:41:48.675Z,4.30
2022-09-06T12:44:36.774Z,4.57
2022-09-06T12:47:30.584Z,4.00
2022-09-06T12:50:17.552Z,3.87
2022-09-06T12:53:21.563Z,3.17
2022-09-06T12:56:12.334Z,4.17
2022-09-06T12:59:11.215Z,5.20
2022-09-06T13:02:04.889Z,3.50
2022-09-06T13:04:56.659Z,4.30
2022-09-06T13:07:47.226Z,3.80
2022-09-06T13:10:37.710Z,3.60
2022-09-06T13:13:24.404Z,4.00
2022-09-06T13:16:12.117Z,4.20
2022-09-06T13:19:11.475Z,4.30
2022-09-06T13:21:59.337Z,3.83
2022-09-06T13:24:49.057Z,4.13
2022-09-06T13:27:39.241Z,3.60
2022-09-06T13:30:55.935Z,3.97
2022-09-06T13:33:42.677Z,3.90
2022-09-06T13:36:33.508Z,3.97
2022-09-06T13:39:38.154Z,4.03
2022-09-06T13:42:33.539Z,4.60
2022-09-06T13:45:33.740Z,4.20
2022-09-06T13:48:29.103Z,3.90
2022-09-06T13:51:30.028Z,3.83
2022-09-06T13:54:16.322Z,4.30
2022-09-06T13:57:03.351Z,3.90
2022-09-06T13:59:49.282Z,3.50
2022-09-06T14:02:35.386Z,4.00
2022-09-06T14:05:21.800Z,4.30
2022-09-06T14:08:07.928Z,5.03
2022-09-06T14:10:59.088Z,4.30
2022-09-06T14:13:45.084Z,4.27
2022-09-06T14:16:32.903Z,4.10
2022-09-06T14:19:18.744Z,4.00
2022-09-06T14:22:06.808Z,4.13
2022-09-06T14:24:52.596Z,4.40
2022-09-06T14:27:38.894Z,4.10
2022-09-06T14:30:24.652Z,4.27
2022-09-06T14:33:11.645Z,3.80
2022-09-06T14:35:57.427Z,3.90
2022-09-06T14:38:47.319Z,4.87
2022-09-06T14:41:33.737Z,3.63
2022-09-06T14:44:21.591Z,4.27
2022-09-06T14:47:12.044Z,4.10
2022-09-06T14:49:58.120Z,4.07
2022-09-06T14:52:45.087Z,4.10
2022-09-06T14:55:30.938Z,3.40
2022-09-06T14:58:16.637Z,3.93
2022-09-06T15:01:10.349Z,4.03
2022-09-06T15:03:59.276Z,4.50
2022-09-06T15:06:47.191Z,5.63
2022-09-06T15:09:32.813Z,3.87
2022-09-06T15:12:21.447Z,4.50
2022-09-06T15:15:10.732Z,4.00
2022-09-06T15:18:16.215Z,4.13
2022-09-06T15:21:15.750Z,4.53
2022-09-06T15:24:03.480Z,4.27
2022-09-06T15:26:49.902Z,4.03
2022-09-06T15:29:37.641Z,4.33
2022-09-06T15:32:25.232Z,4.57
2022-09-06T15:35:12.115Z,4.60
2022-09-06T15:37:57.844Z,4.13
2022-09-06T15:40:43.999Z,4.50
2022-09-06T15:43:32.084Z,5.07
2022-09-06T15:46:23.058Z,4.63
2022-09-06T15:49:09.807Z,4.90
2022-09-06T15:51:56.145Z,5.50
2022-09-06T15:55:00.635Z,4.70
2022-09-06T15:57:46.730Z,5.27
2022-09-06T16:00:33.707Z,7.00
2022-09-06T16:03:21.817Z,4.83
2022-09-06T16:09:17.481Z,4.40
2022-09-06T16:12:03.105Z,4.30
2022-09-06T16:14:50.215Z,4.03
2022-09-06T16:17:36.872Z,4.37
2022-09-06T16:20:23.905Z,4.30
2022-09-06T16:23:11.123Z,4.63
2022-09-06T16:25:57.249Z,4.27
2022-09-06T16:28:43.893Z,4.47
2022-09-06T16:31:30.134Z,4.50
2022-09-06T16:34:16.841Z,5.57
2022-09-06T16:37:07.693Z,4.60
2022-09-06T16:39:54.401Z,5.33
2022-09-06T16:42:40.378Z,4.50
2022-09-06T16:45:25.945Z,5.07
2022-09-06T16:48:11.888Z,5.77
2022-09-06T16:50:58.361Z,4.37
2022-09-06T16:53:46.891Z,6.60
2022-09-06T16:56:35.944Z,4.47
2022-09-06T16:59:21.780Z,4.90
2022-09-06T17:02:07.736Z,5.07
2022-09-06T17:04:53.918Z,5.73
2022-09-06T17:07:39.545Z,5.47
2022-09-06T17:10:25.210Z,5.47
2022-09-06T17:13:11.856Z,5.87
2022-09-06T17:16:20.014Z,6.70
2022-09-06T17:19:08.907Z,6.60
2022-09-06T17:21:55.066Z,7.43
2022-09-06T17:24:41.486Z,7.90
2022-09-06T17:27:27.269Z,6.73
2022-09-06T17:30:12.883Z,7.00
2022-09-06T17:32:59.963Z,6.00
2022-09-06T17:35:45.967Z,7.40
2022-09-06T17:38:32.643Z,6.17
2022-09-06T17:41:24.214Z,6.97
2022-09-06T17:44:11.503Z,7.60
2022-09-06T17:47:14.144Z,7.00
2022-09-06T17:50:00.952Z,7.00
2022-09-06T17:52:46.799Z,6.33
2022-09-06T17:55:32.821Z,6.90
2022-09-06T17:58:20.223Z,8.60
2022-09-06T18:01:07.417Z,5.20
2022-09-06T18:03:54.698Z,5.50
2022-09-06T18:06:42.451Z,4.67
2022-09-06T18:09:28.443Z,4.90
2022-09-06T18:12:14.026Z,5.13
2022-09-06T18:15:01.905Z,6.33
2022-09-06T18:17:51.166Z,6.70
2022-09-06T18:20:37.843Z,5.80
2022-09-06T18:23:23.595Z,6.50
2022-09-06T18:26:09.584Z,6.20
2022-09-06T18:28:55.758Z,5.43
2022-09-06T18:31:42.060Z,7.43
2022-09-06T18:34:28.646Z,6.70
2022-09-06T18:37:15.857Z,5.40
2022-09-06T18:40:01.518Z,9.60
2022-09-06T18:42:49.519Z,9.80
2022-09-06T18:45:35.550Z,5.70
2022-09-06T18:48:21.392Z,5.40
2022-09-06T18:51:08.781Z,5.60
2022-09-06T18:53:56.253Z,5.97
2022-09-06T18:56:44.960Z,6.90
2022-09-06T18:59:30.530Z,7.03
2022-09-06T19:02:18.225Z,6.30
2022-09-06T19:05:04.237Z,6.93
2022-09-06T19:07:49.982Z,5.13
2022-09-06T19:10:36.129Z,5.63
2022-09-06T19:13:22.358Z,6.00
2022-09-06T19:16:09.848Z,5.33
2022-09-06T19:18:56.838Z,7.33
2022-09-06T19:21:43.120Z,9.80
2022-09-06T19:24:28.554Z,9.00
2022-09-06T19:27:15.734Z,8.33
2022-09-06T19:30:02.911Z,7.17
2022-09-06T19:32:48.960Z,6.80
2022-09-06T19:35:43.768Z,8.00
2022-09-06T19:39:02.157Z,6.03
2022-09-06T19:41:48.168Z,7.30
2022-09-06T19:44:33.980Z,7.73
2022-09-06T19:47:19.905Z,6.70
2022-09-06T19:50:06.603Z,7.10
2022-09-06T19:52:52.363Z,6.83
2022-09-06T19:55:38.468Z,6.67
2022-09-06T19:58:26.068Z,7.30
2022-09-06T20:01:16.891Z,7.50
2022-09-06T20:04:03.956Z,7.30
2022-09-06T20:06:50.043Z,7.80
2022-09-06T20:09:36.106Z,7.10
2022-09-06T20:12:23.494Z,7.50
2022-09-06T20:15:09.564Z,6.77
2022-09-06T20:17:55.349Z,5.73
2022-09-06T20:20:41.292Z,4.40
2022-09-06T20:23:27.693Z,4.53
2022-09-06T20:26:14.985Z,4.60
2022-09-06T20:29:01.828Z,4.47
2022-09-06T20:31:47.483Z,8.30
2022-09-06T20:34:33.897Z,5.47
2022-09-06T20:37:21.604Z,4.80
2022-09-06T20:40:08.219Z,4.30
2022-09-06T20:42:54.254Z,4.20
2022-09-06T20:45:40.259Z,4.63
2022-09-06T20:48:26.627Z,4.63
2022-09-06T20:51:13.876Z,4.50
2022-09-06T20:54:00.928Z,5.77
2022-09-06T20:56:46.800Z,5.10
2022-09-06T20:59:32.737Z,6.00
2022-09-06T21:02:18.813Z,5.77
2022-09-06T21:05:05.295Z,5.80
2022-09-06T21:07:50.792Z,6.17
2022-09-06T21:10:36.481Z,5.90
2022-09-06T21:13:22.223Z,5.60
2022-09-06T21:16:08.555Z,6.53
2022-09-06T21:19:01.527Z,5.50
2022-09-06T21:21:49.362Z,5.63
2022-09-06T21:24:35.149Z,6.50
2022-09-06T21:27:21.294Z,6.10
2022-09-06T21:30:08.541Z,8.20
2022-09-06T21:32:54.949Z,7.43
2022-09-06T21:35:40.470Z,7.03
2022-09-06T21:38:26.213Z,7.70
2022-09-06T21:41:12.737Z,7.13
2022-09-06T21:43:59.487Z,7.80
2022-09-06T21:46:45.455Z,6.67
2022-09-06T21:49:31.243Z,7.27
2022-09-06T21:52:17.098Z,6.90
2022-09-06T21:55:03.274Z,7.60
2022-09-06T21:57:48.985Z,6.47
2022-09-06T22:00:37.538Z,7.27
2022-09-06T22:03:25.387Z,6.47
2022-09-06T22:06:22.070Z,7.90
2022-09-06T22:09:10.915Z,6.37
2022-09-06T22:11:58.400Z,6.30
2022-09-06T22:14:47.277Z,6.83
2022-09-06T22:17:33.297Z,7.00
2022-09-06T22:20:22.916Z,6.47
2022-09-06T22:23:09.817Z,6.07
2022-09-06T22:26:07.214Z,6.53
2022-09-06T22:28:54.307Z,6.50
2022-09-06T22:31:40.234Z,6.40
2022-09-06T22:34:26.458Z,8.40
2022-09-06T22:37:12.929Z,6.70
2022-09-06T22:39:59.227Z,7.47
2022-09-06T22:42:45.922Z,6.93
2022-09-06T22:45:35.272Z,6.93
2022-09-06T22:48:21.242Z,7.50
2022-09-06T22:51:07.219Z,6.43
2022-09-06T22:53:53.281Z,6.20
2022-09-06T22:56:40.631Z,6.77
2022-09-06T22:59:26.766Z,5.70
2022-09-06T23:02:14.145Z,6.10
2022-09-06T23:05:00.362Z,6.73
2022-09-06T23:07:46.225Z,6.43
2022-09-06T23:10:33.271Z,6.93
2022-09-06T23:13:19.216Z,6.53
2022-09-06T23:16:06.634Z,6.77
2022-09-06T23:18:52.677Z,7.03
2022-09-06T23:21:39.662Z,6.87
2022-09-06T23:24:27.051Z,7.10
2022-09-06T23:27:12.760Z,7.30
2022-09-06T23:29:59.039Z,7.77
2022-09-06T23:32:45.130Z,7.80
2022-09-06T23:35:31.056Z,7.17
2022-09-06T23:38:17.002Z,7.00
2022-09-06T23:41:04.666Z,7.20
2022-09-06T23:43:51.604Z,6.33
2022-09-06T23:46:37.674Z,7.27
2022-09-06T23:49:23.678Z,7.13
2022-09-06T23:52:11.698Z,5.87
2022-09-06T23:54:57.569Z,7.40
2022-09-06T23:57:43.769Z,7.67
